Terminal Aerodrome Forecast
Issued by NWS Charleston, WV

Current Version | Previous Version | Graphics & Text | Print | Product List | Glossary On
Versions: 1 2 3 4 5 6 7 8 9 10 11 12 13 14 15 16 17 18 19 20 21 22 23 24 25 26 27 28 29 30 31
949
FTUS41 KRLX 211426 AAA
TAFBKW
TAF AMD
KBKW 211426Z 2114/2212 24005KT P6SM BKN010 OVC015
     FM211600 26008KT P6SM BKN020
     FM212000 28008KT 4SM -SHRA BR OVC020
     FM220200 31006KT 2SM -DZ BR OVC003=

USA.gov is the U.S. government's official web portal to all federal, state and local government web resources and services.